createdAt,value
2022-10-12T00:01:07.923Z,15.23
2022-10-12T00:03:37.505Z,15.25
2022-10-12T00:06:07.673Z,15.09
2022-10-12T00:08:38.739Z,15.20
2022-10-12T00:11:08.043Z,15.21
2022-10-12T00:13:36.222Z,14.98
2022-10-12T00:16:04.658Z,15.23
2022-10-12T00:18:32.861Z,15.15
2022-10-12T00:21:07.881Z,15.23
2022-10-12T00:23:37.087Z,15.06
2022-10-12T00:26:06.542Z,15.03
2022-10-12T00:28:38.079Z,15.16
2022-10-12T00:31:09.286Z,15.23
2022-10-12T00:33:38.660Z,14.98
2022-10-12T00:36:16.178Z,14.94
2022-10-12T00:38:44.812Z,14.99
2022-10-12T00:41:13.754Z,14.98
2022-10-12T00:43:43.864Z,15.10
2022-10-12T00:46:15.633Z,14.99
2022-10-12T00:48:44.378Z,15.04
2022-10-12T00:51:14.363Z,14.98
2022-10-12T00:53:44.800Z,14.97
2022-10-12T00:56:16.534Z,15.11
2022-10-12T00:58:44.776Z,15.01
2022-10-12T01:01:12.929Z,14.78
2022-10-12T01:03:41.302Z,15.07
2022-10-12T01:06:09.372Z,15.04
2022-10-12T01:08:39.446Z,14.92
2022-10-12T01:11:07.662Z,15.02
2022-10-12T01:13:35.712Z,15.05
2022-10-12T01:16:08.793Z,15.01
2022-10-12T01:18:43.180Z,14.90
2022-10-12T01:21:16.694Z,14.93
2022-10-12T01:24:06.403Z,15.21
2022-10-12T01:27:13.243Z,14.78
2022-10-12T01:30:01.680Z,14.62
2022-10-12T01:32:32.930Z,14.66
2022-10-12T01:35:04.177Z,14.81
2022-10-12T01:37:39.638Z,14.59
2022-10-12T01:40:11.827Z,14.66
2022-10-12T01:42:41.810Z,14.53
2022-10-12T01:45:13.085Z,14.53
2022-10-12T01:47:42.786Z,14.47
2022-10-12T01:50:13.519Z,14.25
2022-10-12T01:52:46.997Z,14.55
2022-10-12T01:55:30.510Z,14.41
2022-10-12T01:58:14.947Z,14.50
2022-10-12T02:00:49.248Z,14.35
2022-10-12T02:03:21.654Z,14.35
2022-10-12T02:05:52.097Z,14.52
2022-10-12T02:08:24.359Z,14.65
2022-10-12T02:10:56.515Z,14.38
2022-10-12T02:13:26.536Z,14.60
2022-10-12T02:15:56.268Z,14.46
2022-10-12T02:18:25.727Z,14.47
2022-10-12T02:20:55.422Z,14.44
2022-10-12T02:23:25.021Z,14.36
2022-10-12T02:25:54.599Z,14.26
2022-10-12T02:28:24.754Z,14.46
2022-10-12T02:30:58.893Z,14.51
2022-10-12T02:33:30.073Z,14.49
2022-10-12T02:36:00.246Z,14.30
2022-10-12T02:38:31.845Z,14.25
2022-10-12T02:41:02.505Z,14.11
2022-10-12T02:43:36.091Z,14.27
2022-10-12T02:46:06.426Z,14.23
2022-10-12T02:48:35.506Z,14.40
2022-10-12T02:51:04.838Z,14.22
2022-10-12T02:53:32.931Z,14.24
2022-10-12T02:56:03.814Z,14.15
2022-10-12T02:58:31.881Z,14.06
2022-10-12T03:01:00.159Z,14.01
2022-10-12T03:03:29.834Z,14.01
2022-10-12T03:05:57.947Z,14.06
2022-10-12T03:08:26.010Z,13.82
2022-10-12T03:10:54.123Z,13.85
2022-10-12T03:13:22.175Z,14.03
2022-10-12T03:15:50.232Z,14.00
2022-10-12T03:18:19.094Z,13.92
2022-10-12T03:20:50.452Z,14.04
2022-10-12T03:23:18.469Z,13.93
2022-10-12T03:25:46.561Z,14.00
2022-10-12T03:28:14.690Z,13.76
2022-10-12T03:30:43.696Z,14.10
2022-10-12T03:33:11.765Z,13.85
2022-10-12T03:35:39.831Z,13.86
2022-10-12T03:38:09.219Z,13.69
2022-10-12T03:40:37.272Z,13.74
2022-10-12T03:43:05.295Z,13.67
2022-10-12T03:45:33.481Z,13.65
2022-10-12T03:48:04.933Z,13.70
2022-10-12T03:50:34.947Z,13.68
2022-10-12T03:53:03.249Z,13.43
2022-10-12T03:55:32.895Z,13.58
2022-10-12T03:58:01.027Z,13.55
2022-10-12T04:00:29.259Z,13.47
2022-10-12T04:02:57.295Z,13.67
2022-10-12T04:05:25.357Z,13.61
2022-10-12T04:07:53.470Z,13.59
2022-10-12T04:10:21.568Z,13.47
2022-10-12T04:12:50.984Z,13.67
2022-10-12T04:15:19.591Z,13.50
2022-10-12T04:17:47.803Z,13.50
2022-10-12T04:20:15.879Z,13.59
2022-10-12T04:22:43.944Z,13.65
2022-10-12T04:25:12.818Z,13.57
2022-10-12T04:27:41.236Z,13.59
2022-10-12T04:30:12.703Z,13.45
2022-10-12T04:32:40.781Z,13.45
2022-10-12T04:35:09.203Z,13.50
2022-10-12T04:37:37.519Z,13.51
2022-10-12T04:40:06.755Z,13.57
2022-10-12T04:42:34.804Z,13.47
2022-10-12T04:45:02.879Z,13.42
2022-10-12T04:47:32.344Z,13.39
2022-10-12T04:50:00.408Z,13.46
2022-10-12T04:52:28.778Z,13.39
2022-10-12T04:54:56.794Z,13.42
2022-10-12T04:57:24.938Z,13.48
2022-10-12T04:59:52.972Z,13.33
2022-10-12T05:02:21.043Z,13.76
2022-10-12T05:04:50.454Z,13.60
2022-10-12T05:07:18.685Z,13.61
2022-10-12T05:09:46.715Z,13.49
2022-10-12T05:12:14.874Z,13.35
2022-10-12T05:14:44.290Z,13.47
2022-10-12T05:17:12.696Z,13.37
2022-10-12T05:19:40.721Z,13.50
2022-10-12T05:22:10.138Z,13.53
2022-10-12T05:24:38.381Z,13.53
2022-10-12T05:27:06.460Z,13.60
2022-10-12T05:29:34.560Z,13.40
2022-10-12T05:32:02.649Z,13.51
2022-10-12T05:34:30.801Z,13.32
2022-10-12T05:36:59.358Z,13.29
2022-10-12T05:39:28.881Z,13.09
2022-10-12T05:41:56.943Z,13.22
2022-10-12T05:44:24.980Z,13.28
2022-10-12T05:46:53.173Z,13.40
2022-10-12T05:49:21.264Z,13.39
2022-10-12T05:51:49.384Z,13.22
2022-10-12T05:54:17.605Z,13.23
2022-10-12T05:56:47.124Z,13.22
2022-10-12T05:59:15.304Z,13.23
2022-10-12T06:01:43.489Z,13.28
2022-10-12T06:04:13.006Z,13.37
2022-10-12T06:06:41.309Z,13.39
2022-10-12T06:09:09.486Z,13.45
2022-10-12T06:11:37.534Z,13.39
2022-10-12T06:14:07.097Z,13.44
2022-10-12T06:16:35.183Z,13.47
2022-10-12T06:19:03.529Z,13.36
2022-10-12T06:21:33.960Z,13.61
2022-10-12T06:24:02.577Z,13.62
2022-10-12T06:26:30.774Z,13.52
2022-10-12T06:29:00.759Z,13.44
2022-10-12T06:31:30.579Z,13.49
2022-10-12T06:33:58.806Z,13.41
2022-10-12T06:36:27.159Z,13.48
2022-10-12T06:38:55.300Z,13.61
2022-10-12T06:41:25.809Z,13.44
2022-10-12T06:43:53.894Z,13.56
2022-10-12T06:46:22.045Z,13.66
2022-10-12T06:48:51.546Z,13.64
2022-10-12T06:51:19.621Z,13.58
2022-10-12T06:53:47.675Z,13.55
2022-10-12T06:56:15.786Z,13.68
2022-10-12T06:58:43.892Z,13.68
2022-10-12T07:01:12.039Z,13.68
2022-10-12T07:03:40.197Z,13.75
2022-10-12T07:06:12.179Z,13.64
2022-10-12T07:08:41.210Z,13.70
2022-10-12T07:11:11.117Z,13.84
2022-10-12T07:13:39.448Z,14.01
2022-10-12T07:16:08.144Z,14.10
2022-10-12T07:18:36.615Z,14.15
2022-10-12T07:21:04.972Z,14.23
2022-10-12T07:23:35.361Z,14.04
2022-10-12T07:26:03.395Z,14.07
2022-10-12T07:28:31.547Z,14.04
2022-10-12T07:31:03.205Z,14.13
2022-10-12T07:33:35.192Z,14.13
2022-10-12T07:36:13.871Z,14.27
2022-10-12T07:38:45.880Z,14.25
2022-10-12T07:41:14.592Z,14.51
2022-10-12T07:43:43.182Z,14.44
2022-10-12T07:46:11.586Z,14.37
2022-10-12T07:48:45.684Z,14.43
2022-10-12T07:51:18.359Z,14.57
2022-10-12T07:53:48.013Z,14.65
2022-10-12T07:56:16.302Z,14.81
2022-10-12T07:58:44.857Z,14.97
2022-10-12T08:01:13.032Z,14.71
2022-10-12T08:03:41.208Z,14.67
2022-10-12T08:06:10.661Z,14.43
2022-10-12T08:08:38.970Z,14.57
2022-10-12T08:11:08.883Z,14.60
2022-10-12T08:13:37.825Z,14.69
2022-10-12T08:16:07.436Z,14.79
2022-10-12T08:18:35.650Z,14.46
2022-10-12T08:21:05.514Z,14.54
2022-10-12T08:23:33.611Z,14.59
2022-10-12T08:26:01.696Z,14.77
2022-10-12T08:28:31.287Z,14.74
2022-10-12T08:30:59.671Z,14.73
2022-10-12T08:33:30.387Z,14.59
2022-10-12T08:35:58.452Z,14.62
2022-10-12T08:38:26.613Z,14.65
2022-10-12T08:40:59.105Z,14.57
2022-10-12T08:43:37.577Z,14.57
2022-10-12T08:46:06.002Z,14.96
2022-10-12T08:48:37.104Z,14.89
2022-10-12T08:51:09.386Z,14.71
2022-10-12T08:53:52.629Z,14.67
2022-10-12T08:56:21.354Z,14.86
2022-10-12T08:58:52.180Z,14.77
2022-10-12T09:01:26.966Z,14.72
2022-10-12T09:04:10.083Z,14.77
2022-10-12T09:06:42.049Z,14.70
2022-10-12T09:09:24.733Z,15.01
2022-10-12T09:12:05.233Z,15.08
2022-10-12T09:14:36.991Z,15.27
2022-10-12T09:17:23.379Z,15.03
2022-10-12T09:19:57.360Z,14.83
2022-10-12T09:22:25.514Z,15.01
2022-10-12T09:24:53.575Z,15.10
2022-10-12T09:27:22.974Z,15.19
2022-10-12T09:29:57.640Z,15.16
2022-10-12T09:32:37.048Z,15.45
2022-10-12T09:35:05.830Z,15.26
2022-10-12T09:37:34.813Z,15.51
2022-10-12T09:40:03.994Z,15.73
2022-10-12T09:42:33.506Z,15.70
2022-10-12T09:45:14.365Z,15.70
2022-10-12T09:47:42.709Z,15.66
2022-10-12T09:50:10.818Z,15.68
2022-10-12T09:52:44.251Z,15.91
2022-10-12T09:55:24.841Z,15.70
2022-10-12T09:57:55.686Z,15.57
2022-10-12T10:00:28.134Z,15.79
2022-10-12T10:02:56.987Z,16.11
2022-10-12T10:05:27.558Z,16.22
2022-10-12T10:08:15.973Z,16.26
2022-10-12T10:10:49.228Z,16.04
2022-10-12T10:13:17.407Z,16.19
2022-10-12T10:15:50.183Z,16.25
2022-10-12T10:18:23.520Z,16.44
2022-10-12T10:20:53.119Z,16.44
2022-10-12T10:23:27.083Z,16.39
2022-10-12T10:25:58.340Z,16.37
2022-10-12T10:28:30.604Z,16.40
2022-10-12T10:31:03.037Z,16.71
2022-10-12T10:33:33.784Z,16.72
2022-10-12T10:36:05.305Z,16.72
2022-10-12T10:38:46.831Z,16.84
2022-10-12T10:41:18.423Z,16.70
2022-10-12T10:43:48.560Z,16.68
2022-10-12T10:46:26.560Z,16.61
2022-10-12T10:48:58.747Z,16.70
2022-10-12T10:51:43.028Z,17.08
2022-10-12T10:54:16.992Z,17.02
2022-10-12T10:56:47.730Z,17.11
2022-10-12T10:59:28.990Z,16.90
2022-10-12T11:02:03.075Z,16.71
2022-10-12T11:04:36.258Z,16.81
2022-10-12T11:07:11.721Z,17.28
2022-10-12T11:09:42.864Z,17.02
2022-10-12T11:12:17.797Z,17.20
2022-10-12T11:14:47.490Z,17.23
2022-10-12T11:17:21.404Z,17.21
2022-10-12T11:19:53.230Z,17.05
2022-10-12T11:22:25.004Z,17.36
2022-10-12T11:24:56.084Z,17.31
2022-10-12T11:27:28.688Z,17.11
2022-10-12T11:30:09.442Z,17.28
2022-10-12T11:32:42.839Z,17.17
2022-10-12T11:35:17.304Z,17.11
2022-10-12T11:37:56.345Z,17.05
2022-10-12T11:40:55.482Z,17.42
2022-10-12T11:43:19.661Z,17.22
2022-10-12T11:45:49.565Z,17.48
2022-10-12T11:48:26.990Z,17.52
2022-10-12T11:50:59.973Z,17.59
2022-10-12T11:53:36.447Z,17.45
2022-10-12T11:56:09.707Z,17.33
2022-10-12T11:58:59.938Z,17.42
2022-10-12T12:01:46.585Z,17.25
2022-10-12T12:04:44.363Z,17.51
2022-10-12T12:07:44.988Z,17.54
2022-10-12T12:10:44.437Z,17.55
2022-10-12T12:13:22.772Z,17.69
2022-10-12T12:16:31.882Z,17.57
2022-10-12T12:19:37.902Z,17.58
2022-10-12T12:22:20.226Z,18.11
2022-10-12T12:25:00.292Z,18.35
2022-10-12T12:27:34.867Z,18.37
2022-10-12T12:30:07.116Z,18.30
2022-10-12T12:32:45.104Z,18.46
2022-10-12T12:35:23.805Z,18.18
2022-10-12T12:38:03.051Z,18.17
2022-10-12T12:40:31.289Z,18.05
2022-10-12T12:43:22.401Z,18.09
2022-10-12T12:45:58.002Z,18.01
2022-10-12T12:49:00.001Z,17.93
2022-10-12T12:51:38.051Z,18.00
2022-10-12T12:54:08.228Z,17.91
2022-10-12T12:56:42.460Z,17.86
2022-10-12T12:59:23.334Z,17.91
2022-10-12T13:02:06.988Z,17.78
2022-10-12T13:04:51.812Z,17.74
2022-10-12T13:07:37.069Z,17.65
2022-10-12T13:10:14.775Z,17.99
2022-10-12T13:13:03.800Z,18.05
2022-10-12T13:15:45.077Z,18.14
2022-10-12T13:18:47.169Z,17.83
2022-10-12T13:21:19.330Z,17.89
2022-10-12T13:23:50.743Z,17.71
2022-10-12T13:26:24.539Z,17.74
2022-10-12T13:28:54.056Z,17.75
2022-10-12T13:31:26.667Z,17.91
2022-10-12T13:34:00.173Z,17.78
2022-10-12T13:36:30.262Z,17.90
2022-10-12T13:39:09.426Z,17.99
2022-10-12T13:41:38.376Z,18.06
2022-10-12T13:44:07.356Z,18.18
2022-10-12T13:46:38.479Z,18.18
2022-10-12T13:49:17.443Z,17.99
2022-10-12T13:51:47.824Z,18.01
2022-10-12T13:54:23.053Z,17.93
2022-10-12T13:56:55.915Z,17.82
2022-10-12T13:59:25.957Z,17.84
2022-10-12T14:01:57.289Z,17.84
2022-10-12T14:04:29.847Z,17.72
2022-10-12T14:07:04.131Z,17.63
2022-10-12T14:09:40.467Z,17.74
2022-10-12T14:12:10.104Z,17.69
2022-10-12T14:14:39.214Z,17.78
2022-10-12T14:17:09.098Z,17.81
2022-10-12T14:19:45.100Z,18.07
2022-10-12T14:22:20.535Z,17.83
2022-10-12T14:24:50.816Z,17.81
2022-10-12T14:27:24.892Z,17.74
2022-10-12T14:29:55.419Z,17.70
2022-10-12T14:32:42.191Z,17.68
2022-10-12T14:35:22.042Z,17.63
2022-10-12T14:37:51.838Z,17.58
2022-10-12T14:40:40.996Z,17.44
2022-10-12T14:43:24.346Z,17.47
2022-10-12T14:45:53.357Z,17.52
2022-10-12T14:48:23.772Z,17.53
2022-10-12T14:50:52.221Z,17.41
2022-10-12T14:53:22.536Z,17.46
2022-10-12T14:55:54.847Z,17.43
2022-10-12T14:58:24.469Z,17.59
2022-10-12T15:00:52.613Z,17.62
2022-10-12T15:03:21.897Z,17.69
2022-10-12T15:05:52.355Z,17.65
2022-10-12T15:08:20.439Z,17.59
2022-10-12T15:10:53.008Z,17.68
2022-10-12T15:13:21.094Z,17.73
2022-10-12T15:15:52.223Z,17.79
2022-10-12T15:18:21.788Z,17.62
2022-10-12T15:20:50.194Z,17.46
2022-10-12T15:23:19.837Z,17.47
2022-10-12T15:25:54.902Z,17.46
2022-10-12T15:28:24.669Z,17.38
2022-10-12T15:31:15.763Z,17.34
2022-10-12T15:33:45.812Z,17.17
2022-10-12T15:36:14.959Z,17.16
2022-10-12T15:38:43.719Z,17.10
2022-10-12T15:41:17.684Z,17.08
2022-10-12T15:43:46.137Z,17.02
2022-10-12T15:46:14.376Z,16.95
2022-10-12T15:48:44.046Z,16.91
2022-10-12T15:51:22.811Z,16.93
2022-10-12T15:53:51.619Z,16.79
2022-10-12T15:56:21.419Z,16.82
2022-10-12T15:58:49.863Z,16.79
2022-10-12T16:01:19.431Z,16.82
2022-10-12T16:03:48.172Z,16.72
2022-10-12T16:06:16.542Z,16.73
2022-10-12T16:08:44.703Z,16.67
2022-10-12T16:11:14.425Z,16.67
2022-10-12T16:13:51.079Z,16.57
2022-10-12T16:16:22.465Z,16.60
2022-10-12T16:18:51.512Z,16.49
2022-10-12T16:21:19.631Z,16.55
2022-10-12T16:23:47.849Z,16.52
2022-10-12T16:26:16.562Z,16.47
2022-10-12T16:28:46.062Z,16.41
2022-10-12T16:31:17.943Z,16.45
2022-10-12T16:33:46.517Z,16.41
2022-10-12T16:36:16.377Z,16.40
2022-10-12T16:38:44.948Z,16.39
2022-10-12T16:41:14.754Z,16.39
2022-10-12T16:43:44.540Z,16.45
2022-10-12T16:46:14.067Z,16.50
2022-10-12T16:48:42.144Z,16.45
2022-10-12T16:51:11.389Z,16.43
2022-10-12T16:53:42.263Z,16.34
2022-10-12T16:56:10.706Z,16.46
2022-10-12T16:58:38.898Z,16.41
2022-10-12T17:01:11.245Z,16.44
2022-10-12T17:03:41.155Z,16.41
2022-10-12T17:06:10.031Z,16.32
2022-10-12T17:08:39.339Z,16.34
2022-10-12T17:11:09.094Z,16.33
2022-10-12T17:13:41.522Z,16.30
2022-10-12T17:16:25.148Z,16.26
2022-10-12T17:18:59.162Z,16.24
2022-10-12T17:21:28.051Z,16.22
2022-10-12T17:23:57.534Z,16.22
2022-10-12T17:26:26.649Z,16.27
2022-10-12T17:28:55.252Z,16.26
2022-10-12T17:31:24.302Z,16.17
2022-10-12T17:33:52.878Z,16.12
2022-10-12T17:36:27.979Z,16.16
2022-10-12T17:38:58.633Z,16.13
2022-10-12T17:41:27.857Z,16.21
2022-10-12T17:43:56.979Z,16.20
2022-10-12T17:46:25.316Z,16.13
2022-10-12T17:48:53.898Z,16.09
2022-10-12T17:51:25.128Z,16.03
2022-10-12T17:53:53.914Z,15.99
2022-10-12T17:56:22.403Z,15.92
2022-10-12T17:58:55.769Z,16.08
2022-10-12T18:01:25.681Z,16.02
2022-10-12T18:03:55.489Z,15.93
2022-10-12T18:06:27.632Z,16.04
2022-10-12T18:08:58.014Z,16.13
2022-10-12T18:11:27.809Z,16.12
2022-10-12T18:13:57.725Z,16.16
2022-10-12T18:16:27.994Z,16.21
2022-10-12T18:18:58.017Z,16.11
2022-10-12T18:21:29.511Z,16.15
2022-10-12T18:23:58.027Z,16.09
2022-10-12T18:26:28.151Z,16.14
2022-10-12T18:28:57.939Z,16.03
2022-10-12T18:31:28.136Z,16.04
2022-10-12T18:33:58.851Z,16.06
2022-10-12T18:36:29.416Z,16.02
2022-10-12T18:39:02.024Z,16.02
2022-10-12T18:41:31.726Z,16.05
2022-10-12T18:44:02.478Z,16.07
2022-10-12T18:46:33.416Z,16.01
2022-10-12T18:49:05.213Z,16.00
2022-10-12T18:51:39.998Z,16.11
2022-10-12T18:54:13.296Z,16.20
2022-10-12T18:56:43.114Z,16.18
2022-10-12T18:59:13.571Z,16.10
2022-10-12T19:01:44.288Z,16.08
2022-10-12T19:04:13.947Z,16.08
2022-10-12T19:06:53.257Z,16.11
2022-10-12T19:09:26.109Z,16.16
2022-10-12T19:11:55.699Z,16.08
2022-10-12T19:14:25.898Z,16.04
2022-10-12T19:16:56.239Z,16.09
2022-10-12T19:19:25.658Z,16.12
2022-10-12T19:21:57.004Z,16.11
2022-10-12T19:24:28.922Z,16.06
2022-10-12T19:27:00.284Z,15.96
2022-10-12T19:29:30.178Z,16.07
2022-10-12T19:32:00.545Z,16.05
2022-10-12T19:34:30.108Z,15.89
2022-10-12T19:37:01.305Z,15.84
2022-10-12T19:39:32.681Z,15.79
2022-10-12T19:42:02.102Z,15.77
2022-10-12T19:44:31.578Z,15.79
2022-10-12T19:47:00.516Z,15.75
2022-10-12T19:49:34.382Z,15.81
2022-10-12T19:52:07.140Z,15.74
2022-10-12T19:54:36.724Z,15.68
2022-10-12T19:57:06.661Z,15.72
2022-10-12T19:59:35.781Z,15.64
2022-10-12T20:02:04.833Z,15.78
2022-10-12T20:04:34.403Z,15.64
2022-10-12T20:07:03.633Z,15.45
2022-10-12T20:09:34.642Z,15.61
2022-10-12T20:12:03.168Z,15.66
2022-10-12T20:14:31.491Z,15.56
2022-10-12T20:16:59.936Z,15.58
2022-10-12T20:19:28.255Z,15.56
2022-10-12T20:21:56.454Z,15.36
2022-10-12T20:24:24.700Z,15.35
2022-10-12T20:26:54.236Z,15.39
2022-10-12T20:29:22.271Z,15.48
2022-10-12T20:31:50.423Z,15.47
2022-10-12T20:34:18.518Z,15.35
2022-10-12T20:36:46.617Z,15.23
2022-10-12T20:39:14.685Z,15.30
2022-10-12T20:41:42.785Z,15.24
2022-10-12T20:44:12.460Z,15.27
2022-10-12T20:46:40.571Z,15.33
2022-10-12T20:49:08.661Z,15.24
2022-10-12T20:51:40.040Z,15.36
2022-10-12T20:54:09.250Z,15.35
2022-10-12T20:56:41.788Z,15.28
2022-10-12T20:59:10.616Z,15.01
2022-10-12T21:01:40.374Z,15.05
2022-10-12T21:04:10.189Z,15.14
2022-10-12T21:06:39.245Z,15.20
2022-10-12T21:09:07.402Z,15.05
2022-10-12T21:11:35.637Z,15.18
2022-10-12T21:14:03.724Z,15.14
2022-10-12T21:16:33.393Z,15.15
2022-10-12T21:19:02.782Z,14.99
2022-10-12T21:21:30.918Z,14.99
2022-10-12T21:24:00.453Z,15.01
2022-10-12T21:26:30.756Z,14.95
2022-10-12T21:29:00.574Z,14.91
2022-10-12T21:31:32.631Z,14.96
2022-10-12T21:34:03.351Z,14.84
2022-10-12T21:36:32.882Z,14.67
2022-10-12T21:39:00.993Z,14.67
2022-10-12T21:41:30.088Z,14.73
2022-10-12T21:43:59.120Z,14.63
2022-10-12T21:46:29.073Z,14.72
2022-10-12T21:48:57.552Z,14.57
2022-10-12T21:51:27.630Z,14.74
2022-10-12T21:53:55.775Z,14.65
2022-10-12T21:56:25.200Z,14.43
2022-10-12T21:58:54.842Z,14.60
2022-10-12T22:01:24.583Z,14.60
2022-10-12T22:03:54.430Z,14.50
2022-10-12T22:06:23.774Z,14.52
2022-10-12T22:08:55.990Z,14.56
2022-10-12T22:11:24.804Z,14.54
2022-10-12T22:13:53.056Z,14.51
2022-10-12T22:16:21.246Z,14.29
2022-10-12T22:18:49.300Z,14.33
2022-10-12T22:21:19.271Z,14.41
2022-10-12T22:23:47.762Z,14.29
2022-10-12T22:26:18.847Z,14.33
2022-10-12T22:28:54.397Z,14.13
2022-10-12T22:31:24.735Z,14.18
2022-10-12T22:33:53.152Z,14.21
2022-10-12T22:36:21.478Z,14.18
2022-10-12T22:38:49.511Z,14.04
2022-10-12T22:41:20.544Z,14.11
2022-10-12T22:43:49.337Z,14.18
2022-10-12T22:46:17.822Z,14.29
2022-10-12T22:48:45.912Z,14.06
2022-10-12T22:51:16.755Z,14.06
2022-10-12T22:53:44.877Z,14.16
2022-10-12T22:56:15.992Z,14.18
2022-10-12T22:58:48.030Z,14.02
2022-10-12T23:01:18.214Z,14.21
2022-10-12T23:03:46.351Z,14.14
2022-10-12T23:06:16.244Z,13.93
2022-10-12T23:08:44.628Z,14.11
2022-10-12T23:11:14.349Z,14.01
2022-10-12T23:13:43.619Z,13.96
2022-10-12T23:16:14.812Z,14.03
2022-10-12T23:18:43.097Z,14.03
2022-10-12T23:21:12.928Z,13.97
2022-10-12T23:23:42.097Z,14.11
2022-10-12T23:26:12.548Z,14.10
2022-10-12T23:28:41.021Z,13.96
2022-10-12T23:31:20.194Z,14.08
2022-10-12T23:33:48.671Z,14.08
2022-10-12T23:36:18.551Z,13.88
2022-10-12T23:38:46.831Z,13.81
2022-10-12T23:41:15.251Z,13.86
2022-10-12T23:43:43.518Z,13.82
2022-10-12T23:46:12.383Z,13.83
2022-10-12T23:48:42.088Z,14.02
2022-10-12T23:51:10.454Z,14.03
2022-10-12T23:53:39.368Z,13.94
2022-10-12T23:56:07.936Z,13.84
2022-10-12T23:58:36.270Z,13.80
